AGGH

Honiara International Airport

Honiara, Solomon Islands

AGGH 221800Z 14003KT 9999 HZ FEW014 SCT028 SCT100 23/22 Q1011

Observed Flight Rules
Aug-22 @ 18:00 UTC (50 minutes ago)
 
Visual Flight Rules
Wind Visibility Clouds Conditions
140° at 3 knots 10,000+ meters
  • Few at 1,400' AGL
  • Scattered at 2,800' AGL
  • Scattered at 10,000' AGL
  • Haze
Temperatures Readings
Current 23°C / 73°F
Dewpoint 22°C / 72°F
Humidity 94%
Altimeter 29.85" Hg
Pressure 1011 hPa
Elevation 9
Observed Flight Rules
Aug-22 @ 18:00 UTC
(50 minutes ago)
 
VFR
Wind Visibility
140° at 3 knots 10,000+ meters
Clouds Conditions
  • Few at 1,400' AGL
  • Scattered at 2,800' AGL
  • Scattered at 10,000' AGL
  • Haze
Temperature Dewpoint
23°C / 73°F 22°C / 72°F
Humidity Altimeter Pressure
94% 29.85" Hg 1011 hPa